Emelle, Alabama
Current Conditions -  °F | °C
As of 10:35 AM on Saturday 22 Nov 2014 (Local Time) from KDYA Reporting Station
Clear Clear  
Wind Chill: 64°   Ceiling: Unl
Heat Index: 64°   Visibility: 10mi
Dew Point: 42°   Wind: 9mph
Humidity: 45%   Direction: 110°ESE
Pressure: 30.29"   Gusts: NA
Location:  32.73°N, 88.31°W
Report Text: KDYA 221635Z AUTO 11008KT 10SM CLR 18/06 A3029 RMK AO2 T01790057
Loading
Personal Weather Stations






























Interactive Weather Map New forecast layout! Learn more

10-Day Weather Forecast

Advertisements
Track Severe Weather on mobile